| time (UTC) | temp C | wind direction | speed KPH | gust KPH | rain 1hr cm | rain 24hr cm | rain mn cm | humidity % | barometer mb |
| 20260906220006 | -17 | 115 | 1.6 | 12.9 | 0.00 | 0.00 | 0.00 | 1010.8 | |
| 20260906214501 | -17 | 355 | 6.4 | 20.9 | 0.00 | 0.00 | 0.00 | 1011.4 | |
| 20260906213002 | -17 | 91 | 4.8 | 17.7 | 0.00 | 0.00 | 0.00 | 1010.7 | |
| 20260906211608 | -17 | 355 | 11.3 | 25.7 | 0.00 | 0.00 | 0.00 | 1010.5 | |
| 20260906210109 | -17 | 5 | 14.5 | 33.8 | 0.00 | 0.00 | 0.00 | 1009.3 | |
| 20260906204551 | -17 | 138 | 0.0 | 8.0 | 0.00 | 0.00 | 0.00 | 1008.9 | |
| 20260906203046 | -17 | 138 | 3.2 | 11.3 | 0.00 | 0.00 | 0.00 | 1008.9 | |
| 20260906201541 | -17 | 138 | 0.0 | 8.0 | 0.00 | 0.00 | 0.00 | 1008.8 | |
| 20260906200046 | -17 | 138 | 1.6 | 6.4 | 0.00 | 0.00 | 0.00 | 1009.7 | |
| 20260906194536 | -17 | 138 | 1.6 | 6.4 | 0.00 | 0.00 | 0.00 | 1009.9 | |
| 20260906193030 | -17 | 138 | 3.2 | 11.3 | 0.00 | 0.00 | 0.00 | 1009.9 | |
| 20260906191524 | -17 | 138 | 4.8 | 12.9 | 0.00 | 0.00 | 0.00 | 1010.0 | |
| 20260906190019 | -17 | 138 | 4.8 | 8.0 | 0.00 | 0.00 | 0.00 | 1010.2 | |
| 20260906184515 | -17 | 138 | 1.6 | 11.3 | 0.00 | 0.00 | 0.00 | 1010.5 | |
| 20260906183025 | -17 | 138 | 3.2 | 6.4 | 0.00 | 0.00 | 0.00 | 1010.9 | |
| 20260906181506 | -17 | 138 | 1.6 | 6.4 | 0.00 | 0.00 | 0.00 | 1011.0 | |
| 20260906173057 | -17 | 138 | 1.6 | 8.0 | 0.00 | 0.00 | 0.00 | 1011.5 | |
| 20260906171604 | -17 | 138 | 4.8 | 11.3 | 0.00 | 0.00 | 0.00 | 1011.6 | |
| 20260906170053 | -17 | 138 | 3.2 | 11.3 | 0.00 | 0.00 | 0.00 | 1011.8 | |
| 20260906164553 | -17 | 138 | 1.6 | 11.3 | 0.00 | 0.00 | 0.00 | 1011.9 | |
| 20260906163048 | -17 | 138 | 0.0 | 6.4 | 0.00 | 0.00 | 0.00 | 1012.1 | |
| 20260906161535 | -17 | 138 | 1.6 | 11.3 | 0.00 | 0.00 | 0.00 | 1012.2 | |
| 20260906160044 | -17 | 138 | 4.8 | 8.0 | 0.00 | 0.00 | 0.00 | 1012.4 | |
| 20260906154526 | -17 | 138 | 0.0 | 8.0 | 0.00 | 0.00 | 0.00 | 1012.4 | |
| 20260906153021 | -17 | 138 | 3.2 | 6.4 | 0.00 | 0.00 | 0.00 | 1012.3 | |
| 20260906151517 | -17 | 140 | 3.2 | 8.0 | 0.00 | 0.00 | 0.00 | 1012.4 | |
| 20260906150031 | -17 | 140 | 0.0 | 8.0 | 0.00 | 0.00 | 0.00 | 1012.3 | |
| 20260906144507 | -17 | 145 | 3.2 | 9.7 | 0.00 | 0.00 | 0.00 | 1012.4 | |
| 20260906143006 | -17 | 157 | 0.0 | 0.0 | 0.00 | 0.00 | 0.00 | 1012.4 | |
| 20260906141622 | -17 | 169 | 0.0 | 0.0 | 0.00 | 0.00 | 0.00 | 1012.5 | |
| 20260906140107 | -17 | 169 | 0.0 | 0.0 | 0.00 | 0.00 | 0.00 | 1012.4 | |
| 20260906134553 | -17 | 169 | 0.0 | 0.0 | 0.00 | 0.00 | 0.00 | 1012.3 | |
| 20260906133050 | -17 | 169 | 0.0 | 1.6 | 0.00 | 0.00 | 0.00 | 1012.4 | |
| 20260906131543 | -17 | 169 | 0.0 | 0.0 | 0.00 | 0.00 | 0.00 | 1012.3 | |
| 20260906130046 | -17 | 169 | 0.0 | 0.0 | 0.00 | 0.00 | 0.00 | 1012.3 | |
| 20260906124536 | -17 | 169 | 0.0 | 1.6 | 0.00 | 0.00 | 0.00 | 1012.2 | |
| 20260906123031 | -17 | 169 | 0.0 | 0.0 | 0.00 | 0.00 | 0.00 | 1012.1 | |
| 20260906121526 | -17 | 169 | 0.0 | 0.0 | 0.00 | 0.00 | 0.00 | 1011.9 | |
| 20260906120022 | -17 | 169 | 0.0 | 0.0 | 0.00 | 0.00 | 0.00 | 1011.8 | |
| 20260906114532 | -17 | 169 | 0.0 | 0.0 | 0.00 | 0.00 | 0.00 | 1011.7 | |
| 20260906113013 | -17 | 169 | 0.0 | 0.0 | 0.00 | 0.00 | 0.00 | 1011.6 | |
| 20260906111508 | -17 | 169 | 0.0 | 0.0 | 0.00 | 0.00 | 0.00 | 1011.3 | |
| 20260906110005 | -17 | 169 | 0.0 | 0.0 | 0.00 | 0.00 | 0.00 | 1011.2 | |
| 20260906104620 | -17 | 169 | 0.0 | 0.0 | 0.00 | 0.00 | 0.00 | 1011.1 | |
| 20260906103056 | -17 | 169 | 0.0 | 0.0 | 0.00 | 0.00 | 0.00 | 1011.0 | |
| 20260906101551 | -17 | 169 | 0.0 | 0.0 | 0.00 | 0.00 | 0.00 | 1011.1 | |
| 20260906100047 | -17 | 169 | 0.0 | 0.0 | 0.00 | 0.00 | 0.00 | 1011.1 | |
| 20260906094606 | -17 | 169 | 0.0 | 0.0 | 0.00 | 0.00 | 0.00 | 1011.2 | |
| 20260906093039 | -17 | 169 | 0.0 | 0.0 | 0.00 | 0.00 | 0.00 | 1011.3 | |
| 20260906091541 | -17 | 169 | 0.0 | 0.0 | 0.00 | 0.00 | 0.00 | 1011.2 | |
| 20260906090033 | -17 | 169 | 0.0 | 0.0 | 0.00 | 0.00 | 0.00 | 1011.1 | |
| 20260906084536 | -17 | 169 | 0.0 | 0.0 | 0.00 | 0.00 | 0.00 | 1011.1 | |
| 20260906083033 | -17 | 169 | 0.0 | 0.0 | 0.00 | 0.00 | 0.00 | 1010.8 | |
| 20260906081539 | -17 | 169 | 0.0 | 0.0 | 0.00 | 0.00 | 0.00 | 1010.7 | |
| 20260906080018 | -17 | 169 | 0.0 | 0.0 | 0.00 | 0.00 | 0.00 | 1010.8 | |
| 20260906074514 | -17 | 169 | 0.0 | 0.0 | 0.00 | 0.00 | 0.00 | 1010.7 | |
| 20260906073009 | -17 | 169 | 0.0 | 0.0 | 0.00 | 0.00 | 0.00 | 1010.7 | |
| 20260906071504 | -17 | 169 | 0.0 | 0.0 | 0.00 | 0.00 | 0.00 | 1010.5 | |
| 20260906070100 | -17 | 169 | 0.0 | 0.0 | 0.00 | 0.00 | 0.00 | 1010.9 | |
| 20260906064556 | -17 | 169 | 0.0 | 0.0 | 0.00 | 0.00 | 0.00 | 1010.9 | |
| 20260906063052 | -17 | 169 | 0.0 | 0.0 | 0.00 | 0.00 | 0.00 | 1011.3 | |
| 20260906061547 | -17 | 169 | 0.0 | 0.0 | 0.00 | 0.00 | 0.00 | 1011.5 | |
| 20260906060043 | -17 | 169 | 0.0 | 0.0 | 0.00 | 0.00 | 0.00 | 1011.7 | |
| 20260906054538 | -17 | 169 | 0.0 | 0.0 | 0.00 | 0.00 | 0.00 | 1012.0 | |
| 20260906053034 | -17 | 169 | 0.0 | 0.0 | 0.00 | 0.00 | 0.00 | 1012.2 | |
| 20260906051528 | -17 | 169 | 0.0 | 0.0 | 0.00 | 0.00 | 0.00 | 1012.3 | |
| 20260906050024 | -17 | 169 | 0.0 | 0.0 | 0.00 | 0.00 | 0.00 | 1012.2 | |
| 20260906044527 | -17 | 169 | 0.0 | 1.6 | 0.00 | 0.00 | 0.00 | 1012.3 | |
| 20260906043016 | -17 | 169 | 0.0 | 0.0 | 0.00 | 0.00 | 0.00 | 1012.2 | |
| 20260906041511 | -17 | 169 | 0.0 | 0.0 | 0.00 | 0.00 | 0.00 | 1012.1 | |
| 20260906040005 | -17 | 169 | 0.0 | 1.6 | 0.00 | 0.00 | 0.00 | 1012.2 | |
| 20260906034504 | -17 | 169 | 0.0 | 0.0 | 0.00 | 0.00 | 0.00 | 1012.1 | |
| 20260906033004 | -17 | 169 | 0.0 | 0.0 | 0.00 | 0.00 | 0.00 | 1012.1 | |
| 20260906031503 | -17 | 169 | 0.0 | 0.0 | 0.00 | 0.00 | 0.00 | 1012.1 | |
| 20260906030003 | -17 | 169 | 0.0 | 0.0 | 0.00 | 0.00 | 0.00 | 1012.2 | |
| 20260906024501 | -17 | 169 | 0.0 | 0.0 | 0.00 | 0.00 | 0.00 | 1012.2 | |
| 20260906023001 | -17 | 169 | 0.0 | 0.0 | 0.00 | 0.00 | 0.00 | 1012.5 | |
| 20260906021607 | -17 | 169 | 0.0 | 0.0 | 0.00 | 0.00 | 0.00 | 1012.4 | |
| 20260906020106 | -17 | 169 | 0.0 | 0.0 | 0.00 | 0.00 | 0.00 | 1012.2 | |
| 20260906014601 | -17 | 169 | 0.0 | 1.6 | 0.00 | 0.00 | 0.00 | 1012.1 | |
| 20260906013100 | -17 | 169 | 0.0 | 0.0 | 0.00 | 0.00 | 0.00 | 1012.0 | |
| 20260906011600 | -17 | 169 | 0.0 | 0.0 | 0.00 | 0.00 | 0.00 | 1012.0 | |
| 20260906010106 | -17 | 169 | 0.0 | 0.0 | 0.00 | 0.00 | 0.00 | 1011.5 | |
| 20260906004603 | -17 | 169 | 0.0 | 0.0 | 0.00 | 0.00 | 0.00 | 1011.4 | |
| 20260906003100 | -17 | 169 | 0.0 | 0.0 | 0.00 | 0.00 | 0.00 | 1011.1 | |
| 20260906001609 | -17 | 169 | 0.0 | 1.6 | 0.00 | 0.00 | 0.00 | 1011.0 | |
| 20260906000056 | -17 | 169 | 0.0 | 0.0 | 0.00 | 0.00 | 0.00 | 1011.3 | |
| 20260905234557 | -17 | 169 | 0.0 | 1.6 | 0.00 | 0.00 | 0.00 | 1011.2 | |
| 20260905233108 | -17 | 169 | 0.0 | 1.6 | 0.00 | 0.00 | 0.00 | 1011.4 | |
| 20260905231553 | -17 | 169 | 0.0 | 1.6 | 0.00 | 0.00 | 0.00 | 1011.3 | |
| 20260905230052 | -17 | 169 | 0.0 | 0.0 | 0.00 | 0.00 | 0.00 | 1011.7 | |
| 20260905224546 | -17 | 169 | 0.0 | 1.6 | 0.00 | 0.00 | 0.00 | 1011.8 | |
| 20260905223043 | -17 | 169 | 0.0 | 0.0 | 0.00 | 0.00 | 0.00 | 1011.7 | |
| 20260905221543 | -17 | 135 | 0.0 | 1.6 | 0.00 | 0.00 | 0.00 | 1011.5 |